CYTZ/YTZ METAR and TAF weather

Enter ICAO airport designator
Station Type Date Time Source
CYTZ METAR 2017/01/22 18:00 UTC NOAA

CYTZ 221800Z AUTO 06012KT 9SM BKN006 OVC020 04/03 A2971 RMK SLP066


Station Type Date Time Source
CYTZ Decoded METAR 2017/01/22 18:00 UTC NOAA

Toronto Island Airport Automated Reporting Station, Canada (CYTZ) 43-38N 079-24W
Jan 22, 2017 - 01:00 PM EST / 2017.01.22 1800 UTC
Wind: from the ENE (060 degrees) at 14 MPH (12 KT):0
Visibility: 9 mile(s):0
Sky conditions: overcast
Temperature: 39 F (4 C)
Dew Point: 37 F (3 C)
Relative Humidity: 93%
Pressure (altimeter): 29.71 in. Hg (1006 hPa)
ob: CYTZ 221800Z AUTO 06012KT 9SM BKN006 OVC020 04/03 A2971 RMK SLP066
cycle: 18

Station Type Date Time Source
CYTZ TAF 2017/01/22 17:24 UTC NOAA

TAF
AMD TAF
AMD CYTZ 221721Z 2217/2314 07012G22KT P6SM OVC006
TEMPO 2217/2223 21/2SM BR OVC003 PROB30 2220/2223 3/4SM -DZ BR OVC003
FM222300 07015G25KT 11/2SM -DZ BR OVC005
FM230600 07015G25KT 1SM -DZ BR OVC003
FM231300 08015G25KT 3SM BR OVC008
RMK FCST BASED ON AUTO OBS. NXT FCST BY 222000Z


Example: see airport list